createdAt,value
2023-04-27T00:01:34.649Z,3.45
2023-04-27T00:04:01.747Z,3.45
2023-04-27T00:06:28.464Z,3.65
2023-04-27T00:08:54.887Z,3.33
2023-04-27T00:11:21.290Z,3.25
2023-04-27T00:13:48.384Z,3.78
2023-04-27T00:16:14.812Z,3.90
2023-04-27T00:18:41.423Z,3.90
2023-04-27T00:21:09.098Z,3.20
2023-04-27T00:23:35.936Z,3.92
2023-04-27T00:26:02.869Z,3.78
2023-04-27T00:28:29.263Z,3.75
2023-04-27T00:30:55.940Z,3.90
2023-04-27T00:33:22.350Z,3.60
2023-04-27T00:35:48.768Z,3.92
2023-04-27T00:38:15.163Z,3.67
2023-04-27T00:40:41.668Z,3.38
2023-04-27T00:43:08.040Z,4.03
2023-04-27T00:45:42.142Z,3.97
2023-04-27T00:48:09.446Z,3.78
2023-04-27T00:50:36.002Z,3.50
2023-04-27T00:53:02.549Z,3.80
2023-04-27T00:55:28.978Z,3.50
2023-04-27T00:57:55.367Z,3.97
2023-04-27T01:00:22.129Z,4.22
2023-04-27T01:02:49.473Z,3.72
2023-04-27T01:05:16.655Z,3.60
2023-04-27T01:07:43.046Z,4.20
2023-04-27T01:10:09.732Z,3.73
2023-04-27T01:12:36.200Z,3.88
2023-04-27T01:15:03.016Z,4.00
2023-04-27T01:17:29.397Z,4.25
2023-04-27T01:19:56.688Z,4.18
2023-04-27T01:22:23.118Z,3.80
2023-04-27T01:24:49.493Z,4.28
2023-04-27T01:27:15.890Z,4.50
2023-04-27T01:29:43.946Z,3.83
2023-04-27T01:32:10.501Z,4.28
2023-04-27T01:34:36.899Z,4.40
2023-04-27T01:37:03.877Z,4.65
2023-04-27T01:39:30.295Z,3.75
2023-04-27T01:41:58.381Z,3.78
2023-04-27T01:44:25.060Z,4.55
2023-04-27T01:46:51.555Z,3.90
2023-04-27T01:49:17.965Z,3.97
2023-04-27T01:51:44.331Z,4.30
2023-04-27T01:54:10.737Z,4.05
2023-04-27T01:56:37.133Z,3.72
2023-04-27T01:59:03.525Z,4.10
2023-04-27T02:01:31.383Z,3.95
2023-04-27T02:03:57.933Z,3.97
2023-04-27T02:06:24.526Z,4.18
2023-04-27T02:08:51.563Z,3.92
2023-04-27T02:11:17.930Z,3.37
2023-04-27T02:13:44.294Z,3.95
2023-04-27T02:16:10.716Z,4.20
2023-04-27T02:18:38.451Z,3.70
2023-04-27T02:21:11.014Z,3.80
2023-04-27T02:23:37.436Z,3.90
2023-04-27T02:26:04.721Z,3.88
2023-04-27T02:28:31.334Z,3.83
2023-04-27T02:30:58.645Z,3.80
2023-04-27T02:33:25.191Z,3.95
2023-04-27T02:35:51.581Z,4.13
2023-04-27T02:38:17.953Z,3.80
2023-04-27T02:40:44.317Z,4.07
2023-04-27T02:43:10.703Z,4.07
2023-04-27T02:45:38.333Z,4.38
2023-04-27T02:48:04.909Z,4.23
2023-04-27T02:50:31.366Z,4.20
2023-04-27T02:52:57.717Z,3.92
2023-04-27T02:55:24.083Z,3.75
2023-04-27T02:57:50.561Z,4.07
2023-04-27T03:00:17.173Z,3.70
2023-04-27T03:02:43.670Z,4.03
2023-04-27T03:05:11.060Z,4.10
2023-04-27T03:07:37.500Z,3.78
2023-04-27T03:10:04.296Z,4.60
2023-04-27T03:12:30.697Z,4.80
2023-04-27T03:14:57.211Z,4.43
2023-04-27T03:17:23.634Z,4.25
2023-04-27T03:19:50.430Z,4.60
2023-04-27T03:22:16.816Z,4.28
2023-04-27T03:24:43.208Z,4.10
2023-04-27T03:27:10.071Z,4.07
2023-04-27T03:29:36.415Z,4.00
2023-04-27T03:32:04.370Z,3.85
2023-04-27T03:34:31.333Z,3.58
2023-04-27T03:36:57.867Z,3.90
2023-04-27T03:39:24.342Z,4.03
2023-04-27T03:41:50.812Z,4.82
2023-04-27T03:44:17.181Z,3.83
2023-04-27T03:46:43.544Z,3.95
2023-04-27T03:49:09.916Z,4.07
2023-04-27T03:51:38.053Z,4.43
2023-04-27T03:54:04.480Z,4.18
2023-04-27T03:56:30.885Z,4.10
2023-04-27T03:58:57.260Z,4.70
2023-04-27T04:01:24.812Z,4.53
2023-04-27T04:03:51.713Z,4.07
2023-04-27T04:06:18.212Z,4.53
2023-04-27T04:08:44.639Z,4.18
2023-04-27T04:11:11.029Z,4.95
2023-04-27T04:13:37.404Z,4.30
2023-04-27T04:16:05.812Z,4.30
2023-04-27T04:18:32.593Z,4.13
2023-04-27T04:20:59.068Z,4.80
2023-04-27T04:23:25.920Z,5.15
2023-04-27T04:25:52.320Z,4.20
2023-04-27T04:28:18.707Z,4.82
2023-04-27T04:30:45.647Z,4.55
2023-04-27T04:33:12.184Z,4.38
2023-04-27T04:35:39.007Z,4.63
2023-04-27T04:38:05.874Z,4.07
2023-04-27T04:40:32.285Z,4.47
2023-04-27T04:42:58.637Z,4.10
2023-04-27T04:45:25.133Z,4.57
2023-04-27T04:47:54.379Z,4.57
2023-04-27T04:50:20.913Z,4.93
2023-04-27T04:52:47.290Z,4.03
2023-04-27T04:55:14.496Z,3.60
2023-04-27T04:57:40.901Z,3.53
2023-04-27T05:00:13.817Z,4.00
2023-04-27T05:02:41.161Z,3.90
2023-04-27T05:05:08.374Z,3.78
2023-04-27T05:07:35.264Z,3.60
2023-04-27T05:10:01.659Z,4.07
2023-04-27T05:12:28.011Z,3.95
2023-04-27T05:14:54.405Z,3.70
2023-04-27T05:17:20.887Z,4.00
2023-04-27T05:19:47.629Z,3.88
2023-04-27T05:22:14.004Z,4.25
2023-04-27T05:24:40.832Z,3.92
2023-04-27T05:27:07.431Z,3.90
2023-04-27T05:29:33.825Z,4.03
2023-04-27T05:32:00.409Z,5.00
2023-04-27T05:34:27.031Z,4.68
2023-04-27T05:36:53.395Z,5.13
2023-04-27T05:39:19.782Z,5.87
2023-04-27T05:41:46.214Z,6.50
2023-04-27T05:44:12.685Z,6.57
2023-04-27T05:46:39.097Z,6.07
2023-04-27T05:49:05.591Z,5.93
2023-04-27T05:51:33.330Z,6.20
2023-04-27T05:54:01.745Z,6.18
2023-04-27T05:56:28.080Z,5.93
2023-04-27T05:58:54.423Z,6.03
2023-04-27T06:01:21.591Z,5.57
2023-04-27T06:03:48.088Z,5.70
2023-04-27T06:06:14.806Z,4.85
2023-04-27T06:11:32.311Z,4.85
2023-04-27T06:13:58.700Z,4.78
2023-04-27T06:16:25.301Z,5.53
2023-04-27T06:18:51.979Z,4.63
2023-04-27T06:21:18.362Z,4.43
2023-04-27T06:23:44.750Z,4.70
2023-04-27T06:26:11.518Z,4.57
2023-04-27T06:28:38.089Z,4.57
2023-04-27T06:31:05.038Z,3.50
2023-04-27T06:33:31.448Z,3.55
2023-04-27T06:35:58.338Z,3.42
2023-04-27T06:38:24.681Z,3.33
2023-04-27T06:40:53.031Z,3.40
2023-04-27T06:43:19.478Z,3.28
2023-04-27T06:45:46.054Z,3.15
2023-04-27T06:48:12.555Z,3.20
2023-04-27T06:50:38.962Z,3.20
2023-04-27T06:53:05.331Z,3.13
2023-04-27T06:55:31.756Z,3.25
2023-04-27T06:57:58.118Z,3.03
2023-04-27T07:00:24.832Z,3.33
2023-04-27T07:02:51.636Z,3.33
2023-04-27T07:05:18.376Z,3.30
2023-04-27T07:07:44.777Z,3.20
2023-04-27T07:10:11.212Z,2.97
2023-04-27T07:12:38.412Z,2.63
2023-04-27T07:15:06.492Z,2.85
2023-04-27T07:17:33.132Z,3.10
2023-04-27T07:20:01.572Z,3.08
2023-04-27T07:22:28.893Z,3.33
2023-04-27T07:24:55.262Z,2.92
2023-04-27T07:27:22.247Z,3.30
2023-04-27T07:29:48.667Z,3.10
2023-04-27T07:32:15.200Z,3.00
2023-04-27T07:34:52.766Z,2.97
2023-04-27T07:37:20.942Z,3.05
2023-04-27T07:39:48.999Z,2.80
2023-04-27T07:42:15.997Z,2.90
2023-04-27T07:44:42.614Z,2.97
2023-04-27T07:47:09.188Z,2.85
2023-04-27T07:49:36.196Z,3.03
2023-04-27T07:52:02.972Z,2.97
2023-04-27T07:54:29.654Z,2.60
2023-04-27T07:56:56.142Z,2.30
2023-04-27T07:59:22.539Z,2.92
2023-04-27T08:01:49.042Z,3.00
2023-04-27T08:04:16.324Z,2.95
2023-04-27T08:06:43.441Z,2.53
2023-04-27T08:09:10.093Z,2.47
2023-04-27T08:11:36.644Z,2.92
2023-04-27T08:14:03.085Z,2.60
2023-04-27T08:16:29.644Z,2.90
2023-04-27T08:18:56.537Z,2.83
2023-04-27T08:21:23.882Z,2.90
2023-04-27T08:23:51.498Z,2.72
2023-04-27T08:26:17.941Z,3.03
2023-04-27T08:28:44.306Z,2.90
2023-04-27T08:31:11.139Z,3.20
2023-04-27T08:33:37.544Z,2.90
2023-04-27T08:36:04.235Z,3.10
2023-04-27T08:38:30.609Z,3.25
2023-04-27T08:40:59.291Z,3.17
2023-04-27T08:43:27.391Z,2.70
2023-04-27T08:45:53.832Z,3.17
2023-04-27T08:48:20.672Z,2.97
2023-04-27T08:50:50.334Z,3.55
2023-04-27T08:53:24.262Z,3.42
2023-04-27T08:55:51.321Z,3.40
2023-04-27T08:58:17.744Z,2.72
2023-04-27T09:00:45.385Z,3.28
2023-04-27T09:03:27.326Z,3.00
2023-04-27T09:06:04.314Z,2.90
2023-04-27T09:08:45.740Z,3.00
2023-04-27T09:11:13.208Z,3.60
2023-04-27T09:13:41.901Z,3.00
2023-04-27T09:16:08.966Z,2.85
2023-04-27T09:18:37.851Z,3.20
2023-04-27T09:21:04.429Z,2.90
2023-04-27T09:23:32.551Z,3.13
2023-04-27T09:26:09.658Z,2.97
2023-04-27T09:28:39.599Z,3.17
2023-04-27T09:31:09.053Z,3.25
2023-04-27T09:33:36.069Z,3.23
2023-04-27T09:36:05.422Z,3.33
2023-04-27T09:38:32.636Z,3.13
2023-04-27T09:41:00.014Z,3.40
2023-04-27T09:43:28.828Z,3.58
2023-04-27T09:45:56.360Z,3.87
2023-04-27T09:48:23.738Z,3.40
2023-04-27T09:50:51.564Z,3.72
2023-04-27T09:53:25.348Z,3.30
2023-04-27T09:56:13.603Z,3.28
2023-04-27T09:58:59.547Z,3.50
2023-04-27T10:01:43.482Z,3.42
2023-04-27T10:04:32.050Z,3.55
2023-04-27T10:07:03.641Z,3.42
2023-04-27T10:09:51.768Z,3.35
2023-04-27T10:12:23.204Z,3.73
2023-04-27T10:14:51.668Z,3.42
2023-04-27T10:17:18.632Z,3.65
2023-04-27T10:20:00.059Z,3.60
2023-04-27T10:22:40.546Z,3.72
2023-04-27T10:25:14.674Z,3.60
2023-04-27T10:27:41.152Z,3.90
2023-04-27T10:30:12.223Z,3.78
2023-04-27T10:32:38.786Z,3.63
2023-04-27T10:35:09.347Z,3.67
2023-04-27T10:37:43.150Z,3.57
2023-04-27T10:40:17.322Z,3.63
2023-04-27T10:42:49.407Z,3.58
2023-04-27T10:45:28.511Z,3.72
2023-04-27T10:48:01.364Z,3.53
2023-04-27T10:50:28.293Z,3.50
2023-04-27T10:52:54.706Z,3.67
2023-04-27T10:55:22.839Z,3.53
2023-04-27T10:57:54.101Z,4.00
2023-04-27T11:00:36.854Z,3.63
2023-04-27T11:03:18.530Z,3.70
2023-04-27T11:05:46.724Z,3.90
2023-04-27T11:08:18.280Z,4.00
2023-04-27T11:10:50.802Z,3.63
2023-04-27T11:13:22.370Z,3.53
2023-04-27T11:15:51.116Z,3.60
2023-04-27T11:18:20.526Z,3.70
2023-04-27T11:20:50.375Z,3.80
2023-04-27T11:23:28.921Z,3.80
2023-04-27T11:25:56.660Z,3.72
2023-04-27T11:28:24.352Z,3.60
2023-04-27T11:30:59.209Z,3.95
2023-04-27T11:33:27.047Z,3.97
2023-04-27T11:35:54.543Z,3.90
2023-04-27T11:38:22.000Z,3.88
2023-04-27T11:41:07.586Z,3.57
2023-04-27T11:43:34.838Z,3.90
2023-04-27T11:46:05.887Z,3.83
2023-04-27T11:48:32.376Z,3.47
2023-04-27T11:51:01.774Z,3.65
2023-04-27T11:53:39.663Z,3.60
2023-04-27T11:56:10.936Z,3.72
2023-04-27T11:58:39.141Z,3.80
2023-04-27T12:01:06.708Z,4.03
2023-04-27T12:03:33.904Z,3.80
2023-04-27T12:06:16.190Z,4.20
2023-04-27T12:08:47.218Z,3.90
2023-04-27T12:11:13.651Z,3.90
2023-04-27T12:13:40.689Z,4.90
2023-04-27T12:16:07.535Z,4.10
2023-04-27T12:18:34.030Z,3.87
2023-04-27T12:21:03.138Z,3.95
2023-04-27T12:23:29.983Z,3.90
2023-04-27T12:25:56.474Z,4.00
2023-04-27T12:28:23.356Z,4.15
2023-04-27T12:30:49.863Z,4.00
2023-04-27T12:33:16.620Z,3.72
2023-04-27T12:35:43.119Z,3.60
2023-04-27T12:38:09.533Z,3.40
2023-04-27T12:40:36.022Z,3.42
2023-04-27T12:43:02.410Z,3.80
2023-04-27T12:45:28.819Z,3.88
2023-04-27T12:48:03.312Z,3.80
2023-04-27T12:50:36.687Z,3.70
2023-04-27T12:53:03.494Z,4.18
2023-04-27T12:55:33.758Z,3.70
2023-04-27T12:58:01.021Z,3.72
2023-04-27T13:00:27.669Z,3.90
2023-04-27T13:02:54.281Z,3.90
2023-04-27T13:05:22.364Z,4.00
2023-04-27T13:07:49.035Z,3.70
2023-04-27T13:10:15.818Z,4.00
2023-04-27T13:12:42.225Z,4.38
2023-04-27T13:15:09.445Z,3.92
2023-04-27T13:17:35.837Z,4.25
2023-04-27T13:20:02.342Z,4.03
2023-04-27T13:22:28.776Z,4.20
2023-04-27T13:24:55.540Z,4.00
2023-04-27T13:27:25.058Z,4.10
2023-04-27T13:29:51.424Z,4.25
2023-04-27T13:32:18.548Z,4.30
2023-04-27T13:34:45.056Z,4.05
2023-04-27T13:37:11.442Z,3.95
2023-04-27T13:39:37.987Z,4.10
2023-04-27T13:42:04.486Z,4.80
2023-04-27T13:44:32.347Z,4.53
2023-04-27T13:46:58.769Z,3.78
2023-04-27T13:49:25.909Z,4.50
2023-04-27T13:51:52.405Z,3.92
2023-04-27T13:54:18.943Z,3.80
2023-04-27T13:56:45.615Z,3.83
2023-04-27T13:59:12.216Z,4.28
2023-04-27T14:01:39.922Z,3.80
2023-04-27T14:04:06.404Z,4.00
2023-04-27T14:06:33.003Z,4.10
2023-04-27T14:08:59.407Z,3.83
2023-04-27T14:11:26.213Z,3.90
2023-04-27T14:13:52.618Z,4.10
2023-04-27T14:16:19.080Z,3.92
2023-04-27T14:18:45.488Z,4.05
2023-04-27T14:21:11.889Z,4.47
2023-04-27T14:23:38.308Z,4.68
2023-04-27T14:26:05.768Z,4.72
2023-04-27T14:28:32.185Z,4.85
2023-04-27T14:30:58.574Z,4.85
2023-04-27T14:33:25.336Z,4.53
2023-04-27T14:35:51.702Z,5.10
2023-04-27T14:38:18.093Z,4.45
2023-04-27T14:40:44.609Z,4.63
2023-04-27T14:43:11.074Z,4.88
2023-04-27T14:45:48.032Z,4.47
2023-04-27T14:48:17.925Z,5.00
2023-04-27T14:50:44.414Z,4.55
2023-04-27T14:53:10.833Z,4.70
2023-04-27T14:55:37.210Z,4.75
2023-04-27T14:58:03.566Z,4.33
2023-04-27T15:00:30.007Z,5.05
2023-04-27T15:02:56.476Z,4.65
2023-04-27T15:05:22.978Z,4.88
2023-04-27T15:07:49.344Z,4.68
2023-04-27T15:10:15.832Z,4.70
2023-04-27T15:12:42.350Z,5.00
2023-04-27T15:15:10.467Z,5.00
2023-04-27T15:17:37.116Z,5.40
2023-04-27T15:20:05.623Z,5.05
2023-04-27T15:22:32.197Z,5.00
2023-04-27T15:24:58.565Z,4.97
2023-04-27T15:27:25.862Z,5.00
2023-04-27T15:29:54.384Z,5.30
2023-04-27T15:32:23.221Z,5.10
2023-04-27T15:34:49.972Z,5.00
2023-04-27T15:37:16.435Z,4.80
2023-04-27T15:39:42.898Z,5.13
2023-04-27T15:42:09.279Z,4.97
2023-04-27T15:44:36.229Z,5.30
2023-04-27T15:47:03.216Z,5.00
2023-04-27T15:49:30.348Z,4.95
2023-04-27T15:51:56.717Z,4.95
2023-04-27T15:54:23.507Z,5.20
2023-04-27T15:56:49.909Z,5.07
2023-04-27T15:59:16.593Z,5.00
2023-04-27T16:01:43.119Z,4.93
2023-04-27T16:04:09.930Z,5.20
2023-04-27T16:06:36.728Z,5.30
2023-04-27T16:09:03.816Z,5.00
2023-04-27T16:11:31.452Z,4.97
2023-04-27T16:13:58.277Z,4.82
2023-04-27T16:16:24.991Z,5.10
2023-04-27T16:18:51.388Z,4.85
2023-04-27T16:21:17.836Z,5.00
2023-04-27T16:23:44.228Z,5.20
2023-04-27T16:26:11.054Z,5.53
2023-04-27T16:28:37.453Z,5.53
2023-04-27T16:31:04.678Z,5.40
2023-04-27T16:33:31.285Z,5.35
2023-04-27T16:35:57.735Z,5.40
2023-04-27T16:38:24.332Z,4.95
2023-04-27T16:40:51.965Z,5.53
2023-04-27T16:43:18.345Z,5.07
2023-04-27T16:45:44.738Z,5.15
2023-04-27T16:48:11.978Z,5.40
2023-04-27T16:50:38.938Z,4.78
2023-04-27T16:53:10.896Z,5.10
2023-04-27T16:55:37.390Z,5.00
2023-04-27T16:58:03.798Z,5.25
2023-04-27T17:00:30.443Z,5.10
2023-04-27T17:02:56.987Z,4.50
2023-04-27T17:05:23.498Z,5.22
2023-04-27T17:07:49.937Z,5.05
2023-04-27T17:10:16.832Z,4.78
2023-04-27T17:12:43.179Z,16.33
2023-04-27T17:15:11.034Z,14.38
2023-04-27T17:17:37.711Z,7.00
2023-04-27T17:20:06.341Z,5.70
2023-04-27T17:22:33.039Z,6.25
2023-04-27T17:24:59.461Z,8.77
2023-04-27T17:27:26.020Z,7.20
2023-04-27T17:29:54.137Z,8.18
2023-04-27T17:32:20.566Z,8.15
2023-04-27T17:34:47.158Z,7.50
2023-04-27T17:37:14.836Z,4.20
2023-04-27T17:39:41.440Z,4.43
2023-04-27T17:42:12.156Z,4.40
2023-04-27T17:44:39.533Z,4.32
2023-04-27T17:47:05.979Z,4.20
2023-04-27T17:49:32.876Z,4.23
2023-04-27T17:51:59.291Z,4.32
2023-04-27T17:54:29.438Z,3.80
2023-04-27T17:56:56.473Z,4.32
2023-04-27T17:59:23.038Z,4.55
2023-04-27T18:01:49.483Z,4.37
2023-04-27T18:04:16.140Z,12.30
2023-04-27T18:06:42.590Z,7.82
2023-04-27T18:09:08.988Z,4.78
2023-04-27T18:11:36.231Z,4.65
2023-04-27T18:14:03.642Z,4.50
2023-04-27T18:16:30.096Z,5.00
2023-04-27T18:18:56.515Z,4.97
2023-04-27T18:21:22.952Z,5.05
2023-04-27T18:23:49.346Z,5.07
2023-04-27T18:26:16.522Z,5.20
2023-04-27T18:28:43.042Z,5.05
2023-04-27T18:31:17.080Z,4.88
2023-04-27T18:33:44.484Z,5.38
2023-04-27T18:36:10.918Z,5.22
2023-04-27T18:38:37.382Z,5.07
2023-04-27T18:41:04.593Z,5.20
2023-04-27T18:43:31.240Z,5.32
2023-04-27T18:45:57.698Z,6.13
2023-04-27T18:48:24.178Z,5.78
2023-04-27T18:50:50.523Z,5.53
2023-04-27T18:53:16.963Z,5.53
2023-04-27T18:55:43.419Z,5.80
2023-04-27T18:58:10.219Z,5.70
2023-04-27T19:00:37.810Z,5.75
2023-04-27T19:03:05.091Z,5.70
2023-04-27T19:05:31.779Z,5.57
2023-04-27T19:07:58.172Z,5.43
2023-04-27T19:10:24.671Z,5.30
2023-04-27T19:12:51.253Z,5.20
2023-04-27T19:15:17.629Z,4.93
2023-04-27T19:17:44.000Z,5.10
2023-04-27T19:20:10.872Z,4.90
2023-04-27T19:22:37.365Z,5.35
2023-04-27T19:25:04.454Z,5.72
2023-04-27T19:27:31.012Z,5.57
2023-04-27T19:29:58.632Z,5.30
2023-04-27T19:32:27.318Z,5.43
2023-04-27T19:34:56.008Z,5.85
2023-04-27T19:37:23.538Z,5.45
2023-04-27T19:39:50.095Z,5.43
2023-04-27T19:42:16.836Z,6.28
2023-04-27T19:44:43.256Z,5.32
2023-04-27T19:47:12.568Z,5.97
2023-04-27T19:49:39.412Z,5.35
2023-04-27T19:52:06.692Z,5.67
2023-04-27T19:54:33.133Z,5.93
2023-04-27T19:56:59.595Z,5.75
2023-04-27T19:59:27.118Z,5.70
2023-04-27T20:01:53.547Z,6.28
2023-04-27T20:04:20.765Z,5.90
2023-04-27T20:06:47.609Z,5.72
2023-04-27T20:09:13.989Z,5.30
2023-04-27T20:11:40.523Z,6.18
2023-04-27T20:14:06.925Z,6.15
2023-04-27T20:16:33.421Z,6.03
2023-04-27T20:18:59.853Z,6.28
2023-04-27T20:21:27.915Z,6.20
2023-04-27T20:23:54.329Z,6.30
2023-04-27T20:26:21.041Z,6.47
2023-04-27T20:28:48.473Z,6.87
2023-04-27T20:31:15.459Z,6.78
2023-04-27T20:33:41.846Z,6.68
2023-04-27T20:36:17.158Z,6.55
2023-04-27T20:38:44.986Z,6.28
2023-04-27T20:41:12.351Z,6.70
2023-04-27T20:43:41.943Z,6.72
2023-04-27T20:46:10.646Z,6.85
2023-04-27T20:48:37.746Z,7.05
2023-04-27T20:51:04.490Z,6.43
2023-04-27T20:53:31.132Z,6.17
2023-04-27T20:55:57.793Z,6.70
2023-04-27T20:58:24.836Z,6.57
2023-04-27T21:00:51.494Z,6.60
2023-04-27T21:03:18.033Z,6.22
2023-04-27T21:05:45.363Z,6.27
2023-04-27T21:08:11.749Z,6.65
2023-04-27T21:10:38.161Z,6.57
2023-04-27T21:13:04.551Z,6.60
2023-04-27T21:15:31.006Z,6.90
2023-04-27T21:17:57.429Z,7.07
2023-04-27T21:20:23.844Z,7.25
2023-04-27T21:22:50.284Z,6.18
2023-04-27T21:25:16.623Z,6.50
2023-04-27T21:27:43.005Z,6.38
2023-04-27T21:30:10.075Z,6.70
2023-04-27T21:32:36.520Z,6.60
2023-04-27T21:35:03.065Z,6.32
2023-04-27T21:37:29.534Z,6.18
2023-04-27T21:39:55.956Z,6.20
2023-04-27T21:42:22.322Z,6.57
2023-04-27T21:44:49.051Z,6.32
2023-04-27T21:47:15.421Z,6.05
2023-04-27T21:49:41.789Z,5.93
2023-04-27T21:52:08.166Z,6.18
2023-04-27T21:54:34.551Z,5.93
2023-04-27T21:57:00.912Z,6.22
2023-04-27T21:59:27.404Z,6.53
2023-04-27T22:01:53.877Z,6.50
2023-04-27T22:04:20.522Z,6.20
2023-04-27T22:06:47.779Z,5.90
2023-04-27T22:09:14.246Z,6.07
2023-04-27T22:11:41.118Z,6.78
2023-04-27T22:14:07.553Z,6.22
2023-04-27T22:16:34.025Z,6.97
2023-04-27T22:19:00.399Z,6.33
2023-04-27T22:21:28.808Z,6.78
2023-04-27T22:23:55.288Z,7.03
2023-04-27T22:26:21.741Z,6.45
2023-04-27T22:28:48.413Z,6.63
2023-04-27T22:31:14.861Z,7.13
2023-04-27T22:33:41.305Z,6.97
2023-04-27T22:36:08.038Z,6.72
2023-04-27T22:38:34.451Z,6.38
2023-04-27T22:41:00.870Z,6.95
2023-04-27T22:43:27.256Z,7.07
2023-04-27T22:45:53.620Z,6.88
2023-04-27T22:48:20.014Z,6.38
2023-04-27T22:50:46.814Z,6.55
2023-04-27T22:53:13.289Z,7.15
2023-04-27T22:55:39.665Z,6.73
2023-04-27T22:58:06.088Z,6.55
2023-04-27T23:00:32.547Z,6.38
2023-04-27T23:02:59.096Z,6.57
2023-04-27T23:05:25.618Z,6.05
2023-04-27T23:07:51.989Z,6.43
2023-04-27T23:10:18.859Z,6.18
2023-04-27T23:12:45.340Z,6.32
2023-04-27T23:15:11.807Z,5.72
2023-04-27T23:17:38.438Z,5.72
2023-04-27T23:20:11.141Z,5.57
2023-04-27T23:22:43.856Z,5.40
2023-04-27T23:25:11.286Z,5.43
2023-04-27T23:27:37.871Z,5.60
2023-04-27T23:30:04.769Z,5.15
2023-04-27T23:32:31.208Z,5.20
2023-04-27T23:34:57.575Z,5.07
2023-04-27T23:37:24.842Z,4.88
2023-04-27T23:39:51.260Z,4.95
2023-04-27T23:42:17.604Z,4.60
2023-04-27T23:44:44.025Z,5.07
2023-04-27T23:47:10.635Z,4.85
2023-04-27T23:49:37.188Z,4.53
2023-04-27T23:52:03.644Z,5.15
2023-04-27T23:54:32.068Z,5.30
2023-04-27T23:56:58.601Z,4.67
2023-04-27T23:59:25.025Z,4.82
